Time;durP1;ratioP1;P1;durP2;ratioP2;P2;SDS_P1;SDS_P2;PMS_P1;PMS_P2;Temp;Humidity;BMP_temperature;BMP_pressure;BME280_temperature;BME280_humidity;BME280_pressure;Samples;Min_cycle;Max_cycle;Signal;HPM_P1;HPM_P2
2022/09/12 00:00:51;;;;;;;14.55;9.75;;;12.00;99.90;;;;;;5077206;28;20192;-70
2022/09/12 00:03:16;;;;;;;15.23;9.98;;;12.10;99.90;;;;;;5077255;28;20186;-70
2022/09/12 00:05:44;;;;;;;16.77;10.00;;;12.10;99.90;;;;;;5079250;28;20698;-70
2022/09/12 00:08:10;;;;;;;19.17;9.85;;;12.10;99.90;;;;;;5096245;28;20303;-71
2022/09/12 00:10:39;;;;;;;18.02;10.50;;;12.20;99.90;;;;;;5098722;28;20165;-70
2022/09/12 00:13:05;;;;;;;19.15;11.20;;;12.20;99.90;;;;;;5098286;28;20204;-71
2022/09/12 00:15:32;;;;;;;17.55;10.70;;;12.10;99.90;;;;;;5096617;28;20173;-70
2022/09/12 00:17:57;;;;;;;18.10;10.40;;;12.10;99.90;;;;;;5097144;28;20598;-70
2022/09/12 00:20:23;;;;;;;17.88;10.95;;;12.10;99.90;;;;;;5095663;28;20180;-70
2022/09/12 00:22:49;;;;;;;21.15;10.73;;;12.10;99.90;;;;;;5096829;28;20180;-70
2022/09/12 00:25:15;;;;;;;19.23;10.55;;;12.00;99.90;;;;;;5096592;28;20200;-70
2022/09/12 00:27:41;;;;;;;13.77;9.52;;;12.00;99.90;;;;;;5096993;28;20259;-70
2022/09/12 00:30:07;;;;;;;17.85;10.00;;;12.00;99.90;;;;;;5095667;28;20181;-70
2022/09/12 00:32:33;;;;;;;19.20;10.98;;;12.00;99.90;;;;;;5074568;28;20189;-70
2022/09/12 00:34:59;;;;;;;15.30;9.93;;;12.00;99.90;;;;;;5055372;28;20181;-70
2022/09/12 00:37:24;;;;;;;15.65;10.10;;;12.10;99.90;;;;;;5088562;28;20547;-70
2022/09/12 00:39:50;;;;;;;19.05;10.15;;;12.10;99.90;;;;;;5096194;28;20238;-70
2022/09/12 00:42:16;;;;;;;15.48;10.38;;;12.00;99.90;;;;;;5096448;28;20169;-69
2022/09/12 00:44:46;;;;;;;15.30;10.55;;;12.00;99.90;;;;;;5096332;28;20192;-70
2022/09/12 00:47:21;;;;;;;13.38;9.45;;;12.00;99.90;;;;;;5094894;28;20195;-69
2022/09/12 00:49:52;;;;;;;13.35;10.15;;;12.00;99.90;;;;;;5096553;28;20161;-70
2022/09/12 00:52:36;;;;;;;11.77;8.98;;;12.00;99.90;;;;;;5096143;28;20169;-70
2022/09/12 00:55:18;;;;;;;12.02;9.45;;;12.00;99.90;;;;;;5095043;28;20527;-70
2022/09/12 00:57:55;;;;;;;14.33;9.57;;;11.90;99.90;;;;;;5086068;28;20235;-70
2022/09/12 01:00:24;;;;;;;11.73;8.75;;;11.90;99.90;;;;;;5075940;28;20162;-70
2022/09/12 01:02:57;;;;;;;12.48;9.00;;;11.90;99.90;;;;;;5075593;28;20188;-70
2022/09/12 01:05:24;;;;;;;12.13;8.43;;;11.80;99.90;;;;;;5075905;28;20162;-70
2022/09/12 01:07:51;;;;;;;10.10;8.20;;;11.80;99.90;;;;;;5094018;28;20390;-70
2022/09/12 01:10:18;;;;;;;12.00;8.80;;;11.70;99.90;;;;;;5095440;28;20177;-70
2022/09/12 01:12:44;;;;;;;11.93;8.83;;;11.70;99.90;;;;;;5094572;28;20173;-70
2022/09/12 01:15:10;;;;;;;13.50;9.20;;;11.70;99.90;;;;;;5095664;28;20222;-70
2022/09/12 01:18:18;;;;;;;12.98;9.43;;;11.70;99.90;;;;;;5095441;28;20341;-70
2022/09/12 01:21:19;;;;;;;13.63;8.70;;;11.70;99.90;;;;;;5091082;28;20181;-70
2022/09/12 01:24:03;;;;;;;11.82;8.43;;;11.70;99.90;;;;;;5082427;28;20181;-70
2022/09/12 01:26:41;;;;;;;9.55;8.20;;;11.60;99.90;;;;;;5094072;28;20181;-70
2022/09/12 01:29:25;;;;;;;10.37;8.60;;;11.60;99.90;;;;;;5075393;28;20209;-70
2022/09/12 01:32:09;;;;;;;11.20;8.60;;;11.60;99.90;;;;;;5075016;28;20186;-70
2022/09/12 01:34:40;;;;;;;11.07;8.85;;;11.50;99.90;;;;;;5075008;28;20154;-70
2022/09/12 01:37:43;;;;;;;12.00;8.93;;;11.50;99.90;;;;;;5088741;28;20660;-70
2022/09/12 01:40:17;;;;;;;12.73;8.88;;;11.50;99.90;;;;;;5093855;28;20245;-70
2022/09/12 01:42:55;;;;;;;12.32;9.10;;;11.50;99.90;;;;;;5099356;28;20188;-70
2022/09/12 01:45:39;;;;;;;14.23;9.03;;;11.40;99.90;;;;;;5094179;28;20181;-70
2022/09/12 01:48:12;;;;;;;12.48;9.20;;;11.40;99.90;;;;;;5093926;28;20209;-70
2022/09/12 01:50:45;;;;;;;9.63;8.48;;;11.40;99.90;;;;;;5095199;28;20158;-70
2022/09/12 01:53:24;;;;;;;12.60;9.13;;;11.40;99.90;;;;;;5094925;28;20573;-70
2022/09/12 01:56:06;;;;;;;15.45;9.50;;;11.40;99.90;;;;;;5095006;28;20683;-70
2022/09/12 01:58:42;;;;;;;11.82;9.15;;;11.30;99.90;;;;;;5079428;28;20202;-70
2022/09/12 02:01:28;;;;;;;13.00;8.83;;;11.20;99.90;;;;;;5073334;28;20252;-70
2022/09/12 02:04:26;;;;;;;14.43;8.90;;;11.10;99.90;;;;;;5074653;28;20673;-70
2022/09/12 02:07:14;;;;;;;11.00;7.80;;;11.00;99.90;;;;;;5084923;28;20208;-70
2022/09/12 02:09:47;;;;;;;12.17;8.53;;;10.90;99.90;;;;;;5092667;28;20383;-70
2022/09/12 02:12:17;;;;;;;10.37;8.50;;;10.80;99.90;;;;;;5094416;28;20218;-69
2022/09/12 02:14:50;;;;;;;10.30;7.63;;;10.80;99.90;;;;;;5093301;28;20585;-70
2022/09/12 02:17:21;;;;;;;9.73;7.00;;;10.80;99.90;;;;;;5093109;28;20638;-71
2022/09/12 02:20:01;;;;;;;10.30;7.50;;;10.80;99.90;;;;;;5093702;28;20180;-72
2022/09/12 02:22:28;;;;;;;9.33;6.60;;;10.70;99.90;;;;;;5093605;28;20565;-72
2022/09/12 02:24:58;;;;;;;7.77;5.90;;;10.70;99.90;;;;;;5094488;28;20203;-70
2022/09/12 02:27:32;;;;;;;7.50;6.10;;;10.70;99.90;;;;;;5088230;28;20200;-70
2022/09/12 02:29:58;;;;;;;9.60;6.93;;;10.60;99.90;;;;;;5072677;28;20174;-70
2022/09/12 02:32:25;;;;;;;7.73;6.70;;;10.60;99.90;;;;;;5072683;28;20535;-70
2022/09/12 02:35:10;;;;;;;6.17;5.57;;;10.60;99.90;;;;;;5073940;28;20234;-70
2022/09/12 02:37:47;;;;;;;5.80;5.30;;;10.60;99.90;;;;;;5091742;28;20231;-70
2022/09/12 02:40:13;;;;;;;6.47;4.93;;;10.60;99.90;;;;;;5093709;28;20216;-70
2022/09/12 02:42:39;;;;;;;6.73;5.30;;;10.60;99.90;;;;;;5094210;28;20192;-70
2022/09/12 02:45:06;;;;;;;7.23;6.07;;;10.70;99.90;;;;;;5093961;28;20173;-70
2022/09/12 02:47:38;;;;;;;7.80;6.10;;;10.60;99.90;;;;;;5094008;28;20204;-70
2022/09/12 02:50:06;;;;;;;7.87;6.33;;;10.70;99.90;;;;;;5094331;28;20157;-70
2022/09/12 02:52:34;;;;;;;8.37;5.87;;;10.70;99.90;;;;;;5093959;28;20722;-70
2022/09/12 02:55:00;;;;;;;7.10;5.93;;;10.70;99.90;;;;;;5093688;28;20172;-70
2022/09/12 02:57:26;;;;;;;5.70;5.10;;;10.60;99.90;;;;;;5086449;28;20213;-70
2022/09/12 02:59:56;;;;;;;5.70;5.00;;;10.60;99.90;;;;;;5074213;28;20157;-71
2022/09/12 03:02:51;;;;;;;8.93;5.53;;;10.50;99.90;;;;;;5073525;28;20522;-71
2022/09/12 03:05:37;;;;;;;5.93;5.40;;;10.60;99.90;;;;;;5073656;28;20567;-71
2022/09/12 03:08:06;;;;;;;6.23;5.47;;;10.50;99.90;;;;;;5053365;28;20212;-71
2022/09/12 03:10:56;;;;;;;11.90;5.70;;;10.50;99.90;;;;;;5052026;28;20170;-71
2022/09/12 03:13:31;;;;;;;6.17;5.57;;;10.40;99.90;;;;;;5053803;28;20201;-71
2022/09/12 03:16:18;;;;;;;5.93;5.30;;;10.40;99.90;;;;;;5053512;28;20695;-71
2022/09/12 03:19:08;;;;;;;6.80;5.97;;;10.40;99.90;;;;;;5056010;28;20190;-71
2022/09/12 03:21:39;;;;;;;6.20;5.20;;;10.50;99.90;;;;;;5057513;28;20166;-71
2022/09/12 03:24:14;;;;;;;6.40;5.50;;;10.30;99.90;;;;;;5056082;28;20216;-71
2022/09/12 03:27:03;;;;;;;6.97;5.70;;;10.30;99.90;;;;;;5057495;28;20284;-71
2022/09/12 03:29:30;;;;;;;10.23;6.23;;;10.20;99.90;;;;;;5056132;28;20209;-71
2022/09/12 03:31:57;;;;;;;6.40;5.80;;;10.30;99.90;;;;;;5057243;28;20265;-71
2022/09/12 03:34:25;;;;;;;7.50;5.80;;;10.30;99.90;;;;;;5056053;28;20170;-71
2022/09/12 03:36:54;;;;;;;8.60;6.20;;;10.30;99.90;;;;;;5080472;28;20181;-71
2022/09/12 03:39:23;;;;;;;9.13;6.57;;;10.40;99.90;;;;;;5096329;28;20197;-72
2022/09/12 03:41:49;;;;;;;8.83;6.13;;;10.40;99.90;;;;;;5098828;28;20165;-71
2022/09/12 03:44:15;;;;;;;13.20;8.37;;;10.40;99.90;;;;;;5097253;28;20184;-72
2022/09/12 03:46:41;;;;;;;13.13;8.23;;;10.40;99.90;;;;;;5097104;28;20641;-71
2022/09/12 03:49:06;;;;;;;13.90;8.43;;;10.40;99.90;;;;;;5097442;28;20204;-71
2022/09/12 03:51:32;;;;;;;12.10;8.80;;;10.40;99.90;;;;;;5096304;28;20181;-71
2022/09/12 03:53:58;;;;;;;21.03;10.73;;;10.40;99.90;;;;;;5097192;28;20653;-71
2022/09/12 03:56:23;;;;;;;16.97;9.57;;;10.40;99.90;;;;;;5097417;28;20252;-72
2022/09/12 03:58:49;;;;;;;13.90;9.67;;;10.40;99.90;;;;;;5095987;28;20197;-70
2022/09/12 04:01:17;;;;;;;17.63;11.17;;;10.40;99.90;;;;;;5097297;28;20557;-71
2022/09/12 04:03:45;;;;;;;17.57;10.17;;;10.40;99.90;;;;;;5056808;28;20181;-71
2022/09/12 04:06:13;;;;;;;18.47;11.53;;;10.50;99.90;;;;;;5057015;28;20175;-71
2022/09/12 04:08:40;;;;;;;16.60;10.83;;;10.40;99.90;;;;;;5056587;28;20234;-71
2022/09/12 04:11:09;;;;;;;14.97;10.63;;;10.40;99.90;;;;;;5055225;28;20541;-71
2022/09/12 04:13:36;;;;;;;16.83;11.20;;;10.30;99.90;;;;;;5055392;28;20178;-70
2022/09/12 04:16:03;;;;;;;15.07;10.97;;;10.30;99.90;;;;;;5056656;28;20179;-71
2022/09/12 04:18:30;;;;;;;13.47;9.77;;;10.30;99.90;;;;;;5057449;28;20224;-71
2022/09/12 04:20:55;;;;;;;13.07;9.53;;;10.20;99.90;;;;;;5056590;28;20595;-70
2022/09/12 04:23:22;;;;;;;14.07;9.87;;;10.20;99.90;;;;;;5056573;28;20300;-71
2022/09/12 04:25:59;;;;;;;13.27;9.83;;;10.30;99.90;;;;;;5056310;28;20185;-71
2022/09/12 04:28:25;;;;;;;11.53;8.97;;;10.30;99.90;;;;;;5056236;28;20210;-71
2022/09/12 04:30:51;;;;;;;14.63;9.67;;;10.30;99.90;;;;;;5054237;28;20543;-71
2022/09/12 04:33:17;;;;;;;12.93;10.33;;;10.20;99.90;;;;;;5056290;28;20175;-71
2022/09/12 04:35:44;;;;;;;14.07;10.20;;;10.10;99.90;;;;;;5056509;28;20170;-70
2022/09/12 04:38:10;;;;;;;11.67;9.53;;;10.10;99.90;;;;;;5054790;28;20202;-70
2022/09/12 04:40:36;;;;;;;10.60;8.70;;;10.10;99.90;;;;;;5054450;28;20197;-71
2022/09/12 04:43:02;;;;;;;11.97;8.67;;;10.10;99.90;;;;;;5054859;28;20631;-70
2022/09/12 04:45:28;;;;;;;12.73;9.33;;;10.10;99.90;;;;;;5056010;28;20623;-70
2022/09/12 04:47:53;;;;;;;13.87;9.53;;;10.10;99.90;;;;;;5056045;28;20206;-70
2022/09/12 04:50:19;;;;;;;12.53;8.93;;;10.10;99.90;;;;;;5056603;28;20159;-70
2022/09/12 04:52:49;;;;;;;11.47;8.67;;;10.10;99.90;;;;;;5056535;28;20170;-70
2022/09/12 04:55:15;;;;;;;10.33;8.10;;;10.10;99.90;;;;;;5054582;28;20202;-71
2022/09/12 04:57:41;;;;;;;11.30;8.80;;;10.10;99.90;;;;;;5064109;28;20201;-70
2022/09/12 05:00:11;;;;;;;11.40;8.63;;;10.00;99.90;;;;;;5075953;28;20170;-70
2022/09/12 05:02:37;;;;;;;12.43;8.70;;;10.10;99.90;;;;;;5064935;28;20178;-70
2022/09/12 05:05:03;;;;;;;11.33;8.80;;;10.10;99.90;;;;;;5055785;28;20224;-70
2022/09/12 05:07:29;;;;;;;12.33;8.63;;;10.10;99.90;;;;;;5089489;28;20279;-70
2022/09/12 05:09:55;;;;;;;10.87;8.50;;;10.00;99.90;;;;;;5096060;28;20174;-70
2022/09/12 05:12:20;;;;;;;12.43;8.73;;;10.00;99.90;;;;;;5095788;28;20169;-70
2022/09/12 05:14:46;;;;;;;11.60;8.67;;;10.00;99.90;;;;;;5094787;28;20548;-70
2022/09/12 05:17:12;;;;;;;10.93;7.97;;;10.00;99.90;;;;;;5094642;28;20653;-70
2022/09/12 05:19:38;;;;;;;14.30;8.40;;;10.00;99.90;;;;;;5095953;28;20169;-70
2022/09/12 05:22:05;;;;;;;13.67;9.30;;;10.00;99.90;;;;;;5094966;28;20537;-70
2022/09/12 05:24:31;;;;;;;11.07;8.33;;;10.00;99.90;;;;;;5096709;28;20237;-70
2022/09/12 05:26:57;;;;;;;10.33;8.00;;;10.10;99.90;;;;;;5094904;28;20173;-70
2022/09/12 05:29:24;;;;;;;10.00;7.73;;;10.10;99.90;;;;;;5094491;28;20216;-70
2022/09/12 05:31:51;;;;;;;13.00;7.63;;;10.10;99.90;;;;;;5090908;28;20177;-70
2022/09/12 05:34:18;;;;;;;12.03;8.47;;;10.10;99.90;;;;;;5075335;28;20533;-70
2022/09/12 05:36:44;;;;;;;14.13;8.43;;;10.20;99.90;;;;;;5084579;28;20207;-70
2022/09/12 05:39:10;;;;;;;10.60;8.47;;;10.20;99.90;;;;;;5093615;28;20744;-71
2022/09/12 05:41:35;;;;;;;13.53;8.40;;;10.30;99.90;;;;;;5094880;28;20276;-70
2022/09/12 05:44:06;;;;;;;12.97;8.03;;;10.40;99.90;;;;;;5093963;28;20177;-70
2022/09/12 05:46:37;;;;;;;10.60;8.37;;;10.40;99.90;;;;;;5095701;28;20160;-70
2022/09/12 05:49:06;;;;;;;10.97;7.60;;;10.40;99.90;;;;;;5093642;28;20299;-70
2022/09/12 05:51:36;;;;;;;13.17;7.77;;;10.50;99.90;;;;;;5093740;28;20196;-70
2022/09/12 05:54:06;;;;;;;11.07;8.43;;;10.60;99.90;;;;;;5095673;28;20179;-70
2022/09/12 05:56:38;;;;;;;13.97;9.50;;;10.70;99.90;;;;;;5093439;28;20199;-70
2022/09/12 05:59:06;;;;;;;16.00;8.93;;;10.70;99.90;;;;;;5074978;28;20194;-70
2022/09/12 06:01:34;;;;;;;13.53;8.60;;;10.80;99.90;;;;;;5072978;28;20178;-70
2022/09/12 06:04:02;;;;;;;11.13;8.60;;;10.90;99.90;;;;;;5074432;28;20196;-70
2022/09/12 06:06:30;;;;;;;14.33;10.30;;;11.00;99.90;;;;;;5081440;28;20195;-70
2022/09/12 06:08:58;;;;;;;14.33;9.67;;;11.10;99.90;;;;;;5093143;28;20680;-70
2022/09/12 06:11:27;;;;;;;15.60;10.17;;;11.20;99.90;;;;;;5094251;28;20175;-70
2022/09/12 06:13:53;;;;;;;15.70;9.90;;;11.20;99.90;;;;;;5094429;28;20226;-70
2022/09/12 06:16:24;;;;;;;13.57;9.73;;;11.30;99.90;;;;;;5094372;28;20169;-70
2022/09/12 06:18:55;;;;;;;19.27;11.20;;;11.40;99.90;;;;;;5093101;28;20246;-70
2022/09/12 06:21:22;;;;;;;13.98;9.40;;;11.40;99.90;;;;;;5094333;28;20179;-70
2022/09/12 06:23:48;;;;;;;12.90;9.53;;;11.50;99.90;;;;;;5092971;28;20173;-70
2022/09/12 06:26:16;;;;;;;12.90;10.10;;;11.60;99.90;;;;;;5092543;28;20287;-70
2022/09/12 06:28:46;;;;;;;11.80;8.73;;;11.80;99.90;;;;;;5093962;28;20193;-70
2022/09/12 06:31:15;;;;;;;13.43;9.32;;;11.90;99.90;;;;;;5094686;28;20638;-70
2022/09/12 06:33:46;;;;;;;15.07;9.55;;;12.00;99.90;;;;;;5072634;28;20189;-70
2022/09/12 06:36:23;;;;;;;14.07;10.07;;;12.20;99.90;;;;;;5072538;28;20227;-70
2022/09/12 06:39:01;;;;;;;13.02;9.60;;;12.30;99.90;;;;;;5072423;28;20288;-70
2022/09/12 06:41:28;;;;;;;15.93;10.73;;;12.50;99.90;;;;;;5073286;28;20315;-70
2022/09/12 06:43:55;;;;;;;15.27;11.35;;;12.60;99.90;;;;;;5073591;28;20537;-70
2022/09/12 06:46:22;;;;;;;15.38;11.13;;;12.70;99.90;;;;;;5072338;28;20187;-70
2022/09/12 06:48:48;;;;;;;19.73;12.18;;;12.90;99.90;;;;;;5072169;28;20232;-70
2022/09/12 06:51:16;;;;;;;14.93;11.20;;;13.00;99.90;;;;;;5073886;28;20627;-70
2022/09/12 06:53:43;;;;;;;13.20;10.15;;;13.20;99.90;;;;;;5071577;28;20177;-70
2022/09/12 06:56:12;;;;;;;15.85;10.85;;;13.40;99.90;;;;;;5072045;28;20205;-70
2022/09/12 06:58:39;;;;;;;17.50;11.18;;;13.50;99.90;;;;;;5057492;28;20213;-70
2022/09/12 07:01:14;;;;;;;14.25;10.57;;;13.70;99.90;;;;;;5053745;28;20205;-70
2022/09/12 07:03:40;;;;;;;15.27;10.25;;;13.90;99.90;;;;;;5073130;28;20177;-70
2022/09/12 07:06:08;;;;;;;17.08;9.60;;;14.00;99.90;;;;;;5077470;28;20185;-70
2022/09/12 07:08:34;;;;;;;13.35;9.30;;;14.10;99.90;;;;;;5092250;28;20699;-70
2022/09/12 07:11:18;;;;;;;15.20;9.80;;;14.10;99.90;;;;;;5093520;28;20172;-70
2022/09/12 07:13:47;;;;;;;12.82;9.75;;;14.20;99.90;;;;;;5093645;28;20154;-70
2022/09/12 07:16:13;;;;;;;15.50;10.98;;;14.30;99.90;;;;;;5092157;28;20169;-70
2022/09/12 07:18:39;;;;;;;12.15;9.52;;;14.40;99.90;;;;;;5093474;28;20732;-70
2022/09/12 07:21:10;;;;;;;13.57;10.52;;;14.40;99.90;;;;;;5093444;28;20188;-70
2022/09/12 07:23:37;;;;;;;14.00;9.70;;;14.50;99.90;;;;;;5093765;28;20168;-70
2022/09/12 07:26:03;;;;;;;14.48;9.68;;;14.50;99.90;;;;;;5091877;28;20220;-70
2022/09/12 07:28:31;;;;;;;14.00;10.02;;;14.60;99.90;;;;;;5078725;28;20286;-70
2022/09/12 07:30:57;;;;;;;13.65;10.32;;;14.60;99.90;;;;;;5073191;28;20217;-70
2022/09/12 07:33:27;;;;;;;14.25;10.32;;;14.70;99.90;;;;;;5054601;28;20264;-70
2022/09/12 07:35:53;;;;;;;15.65;11.57;;;14.80;99.90;;;;;;5060246;28;20199;-70
2022/09/12 07:38:20;;;;;;;15.30;10.15;;;14.90;99.90;;;;;;5093294;28;20261;-70
2022/09/12 07:40:46;;;;;;;12.00;9.55;;;14.90;99.90;;;;;;5093192;28;20203;-71
2022/09/12 07:43:12;;;;;;;15.07;10.68;;;15.10;99.90;;;;;;5093276;28;20173;-70
2022/09/12 07:45:40;;;;;;;16.77;10.60;;;15.20;99.90;;;;;;5093190;28;20652;-70
2022/09/12 07:48:07;;;;;;;16.65;11.23;;;15.40;99.90;;;;;;5093227;28;20226;-70
2022/09/12 07:50:33;;;;;;;14.55;10.60;;;15.50;99.90;;;;;;5093233;28;20175;-70
2022/09/12 07:52:59;;;;;;;17.27;11.70;;;15.60;99.90;;;;;;5093617;28;20645;-70
2022/09/12 07:55:24;;;;;;;14.50;9.85;;;15.80;99.90;;;;;;5093200;28;20668;-71
2022/09/12 07:57:51;;;;;;;15.18;10.15;;;15.90;99.90;;;;;;5092922;28;20536;-71
2022/09/12 08:00:17;;;;;;;12.18;9.90;;;16.00;99.90;;;;;;5093453;28;20177;-71
2022/09/12 08:02:43;;;;;;;16.70;9.05;;;15.90;99.90;;;;;;5093372;28;20183;-71
2022/09/12 08:05:09;;;;;;;13.90;9.05;;;15.90;99.90;;;;;;5096314;28;20177;-71
2022/09/12 08:07:35;;;;;;;13.73;10.38;;;16.00;99.90;;;;;;5079105;28;20209;-71
2022/09/12 08:10:01;;;;;;;13.25;8.63;;;15.90;99.90;;;;;;5076349;28;20634;-71
2022/09/12 08:12:27;;;;;;;16.40;9.27;;;15.90;99.90;;;;;;5076390;28;20170;-70
2022/09/12 08:14:53;;;;;;;10.48;8.70;;;15.90;99.90;;;;;;5075219;28;20756;-71
2022/09/12 08:17:19;;;;;;;12.15;9.23;;;16.00;99.90;;;;;;5076898;28;20174;-71
2022/09/12 08:19:45;;;;;;;10.98;8.52;;;16.00;99.90;;;;;;5075076;28;20223;-71
2022/09/12 08:22:12;;;;;;;12.30;9.10;;;16.10;99.90;;;;;;5076337;28;20643;-71
2022/09/12 08:24:38;;;;;;;11.48;9.45;;;16.10;99.90;;;;;;5076421;28;20173;-71
2022/09/12 08:27:05;;;;;;;12.57;9.95;;;16.20;99.90;;;;;;5076132;28;20174;-71
2022/09/12 08:29:31;;;;;;;14.32;10.27;;;16.20;99.90;;;;;;5074790;28;20213;-71
2022/09/12 08:31:56;;;;;;;16.00;9.82;;;16.20;99.90;;;;;;5076071;28;20174;-71
2022/09/12 08:34:23;;;;;;;12.13;9.27;;;16.30;99.90;;;;;;5076048;28;20170;-71
2022/09/12 08:36:50;;;;;;;13.00;9.00;;;16.30;99.90;;;;;;5087290;28;20192;-71
2022/09/12 08:39:16;;;;;;;14.98;10.75;;;16.40;99.90;;;;;;5096076;28;20261;-71
2022/09/12 08:41:54;;;;;;;14.38;9.98;;;16.50;99.90;;;;;;5095896;28;20736;-71
2022/09/12 08:44:42;;;;;;;13.05;8.85;;;16.60;99.90;;;;;;5096227;28;20243;-71
2022/09/12 08:47:38;;;;;;;15.80;11.18;;;16.70;99.90;;;;;;5095893;28;20177;-71
2022/09/12 08:50:07;;;;;;;11.63;9.30;;;16.70;99.90;;;;;;5096081;28;20173;-71
2022/09/12 08:52:51;;;;;;;15.73;10.85;;;16.90;99.90;;;;;;5094673;28;20586;-71
2022/09/12 08:55:55;;;;;;;18.17;10.30;;;17.00;99.90;;;;;;5095886;28;20173;-71
2022/09/12 08:58:22;;;;;;;12.00;8.63;;;17.10;99.90;;;;;;5079736;28;20319;-71
2022/09/12 09:01:04;;;;;;;12.77;9.40;;;17.20;99.90;;;;;;5075627;28;20585;-71
2022/09/12 09:03:44;;;;;;;13.65;9.75;;;17.30;99.90;;;;;;5075541;28;20184;-71
2022/09/12 09:06:34;;;;;;;14.57;8.90;;;17.40;99.90;;;;;;5081337;28;20189;-71
2022/09/12 09:09:11;;;;;;;11.52;8.85;;;17.50;99.90;;;;;;5095872;28;20561;-71
2022/09/12 09:11:53;;;;;;;11.57;9.18;;;17.60;99.90;;;;;;5095406;28;20222;-71
2022/09/12 09:17:19;;;;;;;12.05;8.60;;;17.80;99.90;;;;;;5094878;28;20585;-71
2022/09/12 09:19:52;;;;;;;11.50;7.97;;;17.90;99.90;;;;;;5095568;28;20156;-70
2022/09/12 09:22:34;;;;;;;12.45;9.40;;;18.00;99.90;;;;;;5095727;28;20243;-71
2022/09/12 09:25:05;;;;;;;12.98;9.77;;;18.10;99.90;;;;;;5095263;28;20496;-71
2022/09/12 09:27:38;;;;;;;10.95;8.90;;;18.20;99.90;;;;;;5088365;28;20241;-71
2022/09/12 09:30:07;;;;;;;11.55;8.68;;;18.30;99.90;;;;;;5073977;28;20536;-71
2022/09/12 09:32:40;;;;;;;12.43;9.25;;;18.40;99.90;;;;;;5074019;28;20193;-71
2022/09/12 09:35:41;;;;;;;13.30;8.55;;;18.60;99.90;;;;;;5074284;28;20181;-71
2022/09/12 09:38:23;;;;;;;12.40;9.20;;;18.70;99.90;;;;;;5046992;28;20237;-71
2022/09/12 09:40:52;;;;;;;11.27;8.35;;;18.80;99.90;;;;;;5054691;28;20182;-71
2022/09/12 09:43:22;;;;;;;9.95;8.15;;;18.90;99.90;;;;;;5054957;28;20635;-71
2022/09/12 09:45:50;;;;;;;13.07;9.10;;;19.00;99.90;;;;;;5053661;28;20175;-71
2022/09/12 09:48:21;;;;;;;11.15;7.80;;;19.00;99.90;;;;;;5053442;28;20582;-71
2022/09/12 09:50:48;;;;;;;9.82;7.90;;;19.00;99.90;;;;;;5055044;28;20162;-71
2022/09/12 09:53:41;;;;;;;9.57;7.30;;;19.10;99.90;;;;;;5054739;28;20536;-71
2022/09/12 09:56:19;;;;;;;12.45;8.07;;;19.10;99.90;;;;;;5052852;28;20266;-71
2022/09/12 09:58:45;;;;;;;8.15;6.82;;;19.10;99.90;;;;;;5053517;28;20198;-71
2022/09/12 10:01:17;;;;;;;10.10;7.28;;;19.10;99.90;;;;;;5054796;28;20221;-71
2022/09/12 10:03:52;;;;;;;9.63;7.13;;;19.20;99.90;;;;;;5055461;28;20252;-71
2022/09/12 10:06:35;;;;;;;9.38;6.75;;;19.20;99.90;;;;;;5068467;28;20187;-71
2022/09/12 10:09:19;;;;;;;7.82;6.10;;;19.40;99.90;;;;;;5093304;28;20556;-71
2022/09/12 10:11:47;;;;;;;8.35;6.85;;;19.50;99.90;;;;;;5094549;28;20295;-71
2022/09/12 10:14:36;;;;;;;11.18;6.90;;;19.70;99.90;;;;;;5093511;28;20173;-71
2022/09/12 10:17:26;;;;;;;7.40;6.18;;;19.80;99.90;;;;;;5093425;28;20530;-71
2022/09/12 10:19:52;;;;;;;8.52;6.10;;;19.80;99.90;;;;;;5093809;28;20538;-72
2022/09/12 10:22:22;;;;;;;9.85;7.00;;;19.70;99.90;;;;;;5094788;28;20165;-72
2022/09/12 10:24:53;;;;;;;9.55;6.20;;;19.70;99.90;;;;;;5094949;28;20637;-72
2022/09/12 10:27:22;;;;;;;9.52;6.78;;;19.70;99.90;;;;;;5089215;28;20205;-72
2022/09/12 10:30:16;;;;;;;10.07;6.35;;;19.80;99.90;;;;;;5074414;28;20224;-72
2022/09/12 10:32:49;;;;;;;10.40;6.65;;;19.90;99.90;;;;;;5071375;28;20224;-71
2022/09/12 10:35:21;;;;;;;8.52;6.10;;;20.10;99.90;;;;;;5075130;28;20154;-71
2022/09/12 10:38:11;;;;;;;9.30;6.32;;;20.20;99.90;;;;;;5092851;28;20693;-72
2022/09/12 10:40:39;;;;;;;10.27;5.93;;;20.50;99.90;;;;;;5094270;28;20681;-73
2022/09/12 10:43:25;;;;;;;9.50;5.35;;;20.60;99.90;;;;;;5094172;28;20176;-72
2022/09/12 10:45:56;;;;;;;5.45;4.35;;;20.80;99.90;;;;;;5094331;28;20173;-72
2022/09/12 10:48:32;;;;;;;5.03;4.22;;;21.00;99.90;;;;;;5094228;28;20204;-72
2022/09/12 10:50:59;;;;;;;4.57;4.10;;;21.20;99.90;;;;;;5094255;28;20168;-72
2022/09/12 10:53:27;;;;;;;7.30;4.50;;;21.40;99.90;;;;;;5094173;28;20165;-72
2022/09/12 10:56:11;;;;;;;8.00;4.40;;;21.40;99.90;;;;;;5094028;28;20169;-72
2022/09/12 10:58:56;;;;;;;7.55;4.93;;;21.40;99.90;;;;;;5078086;28;20209;-72
2022/09/12 11:01:30;;;;;;;6.05;4.85;;;21.60;99.90;;;;;;5073730;28;20668;-72
2022/09/12 11:04:17;;;;;;;8.00;4.72;;;21.70;99.90;;;;;;5073755;28;20168;-73
2022/09/12 11:07:01;;;;;;;5.10;4.38;;;21.80;99.90;;;;;;5084059;28;20185;-73
2022/09/12 11:09:45;;;;;;;5.50;4.25;;;21.90;99.90;;;;;;5094386;28;20227;-72
2022/09/12 11:12:35;;;;;;;7.70;4.40;;;22.00;99.90;;;;;;5093021;28;20169;-71
2022/09/12 11:15:19;;;;;;;7.80;4.70;;;22.10;99.90;;;;;;5094044;28;20237;-72
2022/09/12 11:18:03;;;;;;;5.25;4.07;;;22.20;99.90;;;;;;5093995;28;20258;-72
2022/09/12 11:20:56;;;;;;;5.15;4.53;;;22.30;99.90;;;;;;5094188;28;20175;-72
2022/09/12 11:23:51;;;;;;;10.48;4.97;;;22.30;99.90;;;;;;5094074;28;20565;-72
2022/09/12 11:26:38;;;;;;;5.63;4.22;;;22.30;99.90;;;;;;5092792;28;20653;-71
2022/09/12 11:29:10;;;;;;;6.65;4.70;;;22.40;99.90;;;;;;5073659;28;20296;-72
2022/09/12 11:32:09;;;;;;;5.15;4.30;;;22.30;99.90;;;;;;5073537;28;20642;-71
2022/09/12 11:34:57;;;;;;;6.97;4.05;;;22.10;99.90;;;;;;5061430;28;20212;-72
2022/09/12 11:37:31;;;;;;;7.00;4.20;;;22.00;99.90;;;;;;5088968;28;20204;-71
2022/09/12 11:40:18;;;;;;;4.45;3.97;;;21.80;99.90;;;;;;5096413;28;20180;-72
2022/09/12 11:42:46;;;;;;;4.75;4.22;;;21.50;99.90;;;;;;5097347;28;20154;-72
2022/09/12 11:45:18;;;;;;;5.30;4.15;;;21.50;99.90;;;;;;5096032;28;20184;-72
2022/09/12 11:47:50;;;;;;;4.80;4.30;;;21.50;99.90;;;;;;5097694;28;20197;-72
2022/09/12 11:50:36;;;;;;;5.53;4.05;;;21.90;99.90;;;;;;5097763;28;20564;-73
2022/09/12 11:53:20;;;;;;;4.45;3.70;;;22.50;99.90;;;;;;5095818;28;20563;-72
2022/09/12 11:56:04;;;;;;;3.92;3.55;;;23.00;99.90;;;;;;5096894;28;20253;-73
2022/09/12 11:58:30;;;;;;;4.93;3.45;;;23.30;99.90;;;;;;5081963;28;20201;-73
2022/09/12 12:01:26;;;;;;;6.65;4.13;;;23.60;99.90;;;;;;5076649;28;20174;-72
2022/09/12 12:03:54;;;;;;;4.35;3.95;;;24.00;99.90;;;;;;5076396;28;20662;-73
2022/09/12 12:07:03;;;;;;;4.95;3.53;;;24.10;99.90;;;;;;5083799;28;20543;-73
2022/09/12 12:09:30;;;;;;;5.60;4.07;;;23.90;99.90;;;;;;5095488;28;20297;-73
2022/09/12 12:12:00;;;;;;;4.63;3.80;;;23.70;99.90;;;;;;5096588;28;20176;-73
2022/09/12 12:14:42;;;;;;;4.10;3.70;;;23.60;99.90;;;;;;5096963;28;20177;-72
2022/09/12 12:17:21;;;;;;;4.55;3.60;;;23.70;99.90;;;;;;5097094;28;20165;-73
2022/09/12 12:19:57;;;;;;;4.43;3.88;;;23.80;99.90;;;;;;5096880;28;20153;-72
2022/09/12 12:22:24;;;;;;;4.68;3.75;;;23.70;99.90;;;;;;5097150;28;20153;-72
2022/09/12 12:25:37;;;;;;;5.15;3.67;;;23.30;99.90;;;;;;5095359;28;20668;-73
2022/09/12 12:28:05;;;;;;;4.15;3.58;;;23.10;99.90;;;;;;5083016;28;20222;-70
2022/09/12 12:30:32;;;;;;;5.22;3.50;;;23.30;99.90;;;;;;5057922;28;20262;-69
2022/09/12 12:33:09;;;;;;;5.88;3.80;;;23.70;99.90;;;;;;5056102;28;20210;-70
2022/09/12 12:35:37;;;;;;;6.30;3.42;;;24.10;99.90;;;;;;5056608;28;20178;-70
2022/09/12 12:38:25;;;;;;;5.28;3.55;;;24.30;99.90;;;;;;5096130;28;20236;-70
2022/09/12 12:40:50;;;;;;;3.50;3.20;;;24.40;99.90;;;;;;5094470;28;20211;-70
2022/09/12 12:43:31;;;;;;;4.90;3.90;;;24.80;99.90;;;;;;5095975;28;20646;-70
2022/09/12 12:46:09;;;;;;;6.22;4.05;;;25.30;99.90;;;;;;5095058;28;20215;-70
2022/09/12 12:48:45;;;;;;;4.32;3.70;;;25.70;99.90;;;;;;5095946;28;20201;-70
2022/09/12 12:51:22;;;;;;;4.85;3.72;;;25.90;99.90;;;;;;5094843;28;20160;-70
2022/09/12 12:53:49;;;;;;;4.47;3.40;;;26.00;99.90;;;;;;5096127;28;20519;-70
2022/09/12 12:56:37;;;;;;;3.60;3.30;;;25.80;99.90;;;;;;5094399;28;20201;-71
2022/09/12 12:59:21;;;;;;;4.30;3.70;;;25.40;99.90;;;;;;5076470;28;20749;-70
2022/09/12 13:01:54;;;;;;;4.10;3.70;;;24.80;99.90;;;;;;5075657;28;20185;-70
2022/09/12 13:04:28;;;;;;;4.32;3.92;;;24.20;99.90;;;;;;5074405;28;20170;-70
2022/09/12 13:06:56;;;;;;;4.82;4.15;;;24.30;99.90;;;;;;5087597;28;20664;-70
2022/09/12 13:09:25;;;;;;;5.43;3.95;;;24.60;99.90;;;;;;5095762;28;20216;-70